sensor_id;sensor_type;location;lat;lon;timestamp;pressure;altitude;pressure_sealevel;temperature;humidity
65157;BME280;52745;49.794;18.258;2022-08-19T00:00:29;98249.75;;;21.27;86.29
65157;BME280;52745;49.794;18.258;2022-08-19T00:03:05;98253.13;;;21.24;87.13
65157;BME280;52745;49.794;18.258;2022-08-19T00:05:33;98254.56;;;21.22;86.74
65157;BME280;52745;49.794;18.258;2022-08-19T00:08:00;98257.59;;;21.20;87.09
65157;BME280;52745;49.794;18.258;2022-08-19T00:10:26;98248.50;;;21.16;87.94
65157;BME280;52745;49.794;18.258;2022-08-19T00:12:53;98257.31;;;21.13;88.26
65157;BME280;52745;49.794;18.258;2022-08-19T00:15:21;98250.91;;;21.09;88.03
65157;BME280;52745;49.794;18.258;2022-08-19T00:17:48;98246.75;;;21.03;88.48
65157;BME280;52745;49.794;18.258;2022-08-19T00:20:18;98257.97;;;21.01;88.52
65157;BME280;52745;49.794;18.258;2022-08-19T00:22:45;98243.13;;;20.99;88.58
65157;BME280;52745;49.794;18.258;2022-08-19T00:25:12;98247.72;;;20.98;88.53
65157;BME280;52745;49.794;18.258;2022-08-19T00:27:39;98235.59;;;20.96;89.38
65157;BME280;52745;49.794;18.258;2022-08-19T00:30:06;98245.19;;;20.93;89.30
65157;BME280;52745;49.794;18.258;2022-08-19T00:32:33;98238.50;;;20.91;89.51
65157;BME280;52745;49.794;18.258;2022-08-19T00:35:01;98237.69;;;20.90;89.32
65157;BME280;52745;49.794;18.258;2022-08-19T00:37:27;98233.38;;;20.89;89.28
65157;BME280;52745;49.794;18.258;2022-08-19T00:39:54;98239.75;;;20.84;89.83
65157;BME280;52745;49.794;18.258;2022-08-19T00:42:22;98235.47;;;20.83;89.94
65157;BME280;52745;49.794;18.258;2022-08-19T00:44:49;98233.06;;;20.82;90.00
65157;BME280;52745;49.794;18.258;2022-08-19T00:47:17;98227.34;;;20.83;90.16
65157;BME280;52745;49.794;18.258;2022-08-19T00:49:47;98236.09;;;20.80;90.28
65157;BME280;52745;49.794;18.258;2022-08-19T00:52:25;98229.56;;;20.81;90.04
65157;BME280;52745;49.794;18.258;2022-08-19T00:54:56;98226.38;;;20.79;90.54
65157;BME280;52745;49.794;18.258;2022-08-19T00:57:36;98221.91;;;20.75;90.89
65157;BME280;52745;49.794;18.258;2022-08-19T01:00:07;98227.97;;;20.72;91.15
65157;BME280;52745;49.794;18.258;2022-08-19T01:02:35;98219.69;;;20.68;91.54
65157;BME280;52745;49.794;18.258;2022-08-19T01:05:06;98216.50;;;20.66;91.32
65157;BME280;52745;49.794;18.258;2022-08-19T01:07:35;98206.59;;;20.61;91.80
65157;BME280;52745;49.794;18.258;2022-08-19T01:10:05;98209.94;;;20.58;92.12
65157;BME280;52745;49.794;18.258;2022-08-19T01:12:33;98207.56;;;20.57;92.41
65157;BME280;52745;49.794;18.258;2022-08-19T01:15:00;98212.13;;;20.56;92.65
65157;BME280;52745;49.794;18.258;2022-08-19T01:17:27;98205.75;;;20.52;92.32
65157;BME280;52745;49.794;18.258;2022-08-19T01:19:53;98211.16;;;20.52;92.52
65157;BME280;52745;49.794;18.258;2022-08-19T01:24:50;98208.16;;;20.54;92.54
65157;BME280;52745;49.794;18.258;2022-08-19T01:27:17;98204.34;;;20.55;92.44
65157;BME280;52745;49.794;18.258;2022-08-19T01:29:44;98204.47;;;20.50;92.71
65157;BME280;52745;49.794;18.258;2022-08-19T01:32:14;98210.53;;;20.46;92.72
65157;BME280;52745;49.794;18.258;2022-08-19T01:34:42;98209.75;;;20.46;93.06
65157;BME280;52745;49.794;18.258;2022-08-19T01:37:14;98204.31;;;20.46;93.15
65157;BME280;52745;49.794;18.258;2022-08-19T01:39:41;98201.94;;;20.44;93.50
65157;BME280;52745;49.794;18.258;2022-08-19T01:42:08;98201.94;;;20.44;93.20
65157;BME280;52745;49.794;18.258;2022-08-19T01:44:39;98202.56;;;20.41;93.05
65157;BME280;52745;49.794;18.258;2022-08-19T01:47:08;98189.63;;;20.38;93.39
65157;BME280;52745;49.794;18.258;2022-08-19T01:49:36;98198.91;;;20.37;93.57
65157;BME280;52745;49.794;18.258;2022-08-19T01:52:04;98196.00;;;20.34;93.82
65157;BME280;52745;49.794;18.258;2022-08-19T01:54:31;98194.75;;;20.31;94.16
65157;BME280;52745;49.794;18.258;2022-08-19T01:57:03;98197.75;;;20.30;94.49
65157;BME280;52745;49.794;18.258;2022-08-19T01:59:31;98200.47;;;20.30;94.25
65157;BME280;52745;49.794;18.258;2022-08-19T02:01:58;98200.81;;;20.28;93.90
65157;BME280;52745;49.794;18.258;2022-08-19T02:04:24;98196.00;;;20.25;94.41
65157;BME280;52745;49.794;18.258;2022-08-19T02:06:53;98197.44;;;20.22;94.69
65157;BME280;52745;49.794;18.258;2022-08-19T02:09:20;98204.44;;;20.23;94.65
65157;BME280;52745;49.794;18.258;2022-08-19T02:11:48;98198.09;;;20.19;94.58
65157;BME280;52745;49.794;18.258;2022-08-19T02:14:15;98192.50;;;20.16;94.51
65157;BME280;52745;49.794;18.258;2022-08-19T02:16:41;98196.31;;;20.15;94.81
65157;BME280;52745;49.794;18.258;2022-08-19T02:19:08;98189.78;;;20.16;94.51
65157;BME280;52745;49.794;18.258;2022-08-19T02:21:34;98191.34;;;20.17;94.40
65157;BME280;52745;49.794;18.258;2022-08-19T02:24:01;98183.22;;;20.17;94.76
65157;BME280;52745;49.794;18.258;2022-08-19T02:26:28;98188.50;;;20.13;95.17
65157;BME280;52745;49.794;18.258;2022-08-19T02:28:55;98181.66;;;20.16;94.64
65157;BME280;52745;49.794;18.258;2022-08-19T02:31:24;98172.41;;;20.08;95.52
65157;BME280;52745;49.794;18.258;2022-08-19T02:33:51;98173.31;;;20.03;95.36
65157;BME280;52745;49.794;18.258;2022-08-19T02:36:18;98171.75;;;20.02;95.40
65157;BME280;52745;49.794;18.258;2022-08-19T02:38:45;98159.31;;;20.01;95.61
65157;BME280;52745;49.794;18.258;2022-08-19T02:41:22;98157.22;;;19.98;95.53
65157;BME280;52745;49.794;18.258;2022-08-19T02:43:49;98160.09;;;19.93;96.05
65157;BME280;52745;49.794;18.258;2022-08-19T02:46:21;98159.63;;;19.91;96.03
65157;BME280;52745;49.794;18.258;2022-08-19T02:48:50;98156.41;;;19.89;96.42
65157;BME280;52745;49.794;18.258;2022-08-19T02:51:19;98165.34;;;19.90;96.22
65157;BME280;52745;49.794;18.258;2022-08-19T02:53:46;98164.84;;;19.88;96.32
65157;BME280;52745;49.794;18.258;2022-08-19T02:56:12;98162.47;;;19.86;96.79
65157;BME280;52745;49.794;18.258;2022-08-19T02:58:39;98170.91;;;19.84;96.59
65157;BME280;52745;49.794;18.258;2022-08-19T03:01:06;98166.94;;;19.82;96.78
65157;BME280;52745;49.794;18.258;2022-08-19T03:03:33;98181.06;;;19.79;97.17
65157;BME280;52745;49.794;18.258;2022-08-19T03:06:05;98186.97;;;19.81;96.89
65157;BME280;52745;49.794;18.258;2022-08-19T03:08:32;98189.19;;;19.79;97.29
65157;BME280;52745;49.794;18.258;2022-08-19T03:10:58;98190.16;;;19.74;97.38
65157;BME280;52745;49.794;18.258;2022-08-19T03:13:25;98198.41;;;19.69;97.81
65157;BME280;52745;49.794;18.258;2022-08-19T03:15:52;98191.38;;;19.68;97.57
65157;BME280;52745;49.794;18.258;2022-08-19T03:18:18;98194.41;;;19.67;97.58
65157;BME280;52745;49.794;18.258;2022-08-19T03:20:48;98204.63;;;19.70;97.45
65157;BME280;52745;49.794;18.258;2022-08-19T03:23:16;98204.91;;;19.68;97.32
65157;BME280;52745;49.794;18.258;2022-08-19T03:25:45;98206.34;;;19.65;97.64
65157;BME280;52745;49.794;18.258;2022-08-19T03:28:14;98204.75;;;19.64;97.65
65157;BME280;52745;49.794;18.258;2022-08-19T03:30:42;98215.41;;;19.61;97.93
65157;BME280;52745;49.794;18.258;2022-08-19T03:33:10;98215.53;;;19.56;98.18
65157;BME280;52745;49.794;18.258;2022-08-19T03:35:38;98219.03;;;19.56;98.55
65157;BME280;52745;49.794;18.258;2022-08-19T03:38:05;98228.28;;;19.55;98.19
65157;BME280;52745;49.794;18.258;2022-08-19T03:40:36;98230.84;;;19.60;98.19
65157;BME280;52745;49.794;18.258;2022-08-19T03:43:03;98220.03;;;19.60;98.35
65157;BME280;52745;49.794;18.258;2022-08-19T03:45:29;98220.31;;;19.59;98.16
65157;BME280;52745;49.794;18.258;2022-08-19T03:47:56;98217.75;;;19.54;98.18
65157;BME280;52745;49.794;18.258;2022-08-19T03:50:22;98225.09;;;19.53;98.62
65157;BME280;52745;49.794;18.258;2022-08-19T03:52:50;98232.72;;;19.51;99.04
65157;BME280;52745;49.794;18.258;2022-08-19T03:55:17;98236.53;;;19.50;99.09
65157;BME280;52745;49.794;18.258;2022-08-19T03:57:44;98242.44;;;19.52;98.96
65157;BME280;52745;49.794;18.258;2022-08-19T04:00:12;98235.91;;;19.53;98.90
65157;BME280;52745;49.794;18.258;2022-08-19T04:02:39;98235.13;;;19.53;98.56
65157;BME280;52745;49.794;18.258;2022-08-19T04:05:06;98234.31;;;19.52;98.83
65157;BME280;52745;49.794;18.258;2022-08-19T04:07:34;98242.91;;;19.54;98.61
65157;BME280;52745;49.794;18.258;2022-08-19T04:10:00;98242.91;;;19.54;98.65
65157;BME280;52745;49.794;18.258;2022-08-19T04:12:28;98249.31;;;19.58;98.94
65157;BME280;52745;49.794;18.258;2022-08-19T04:14:54;98237.84;;;19.61;98.54
65157;BME280;52745;49.794;18.258;2022-08-19T04:17:20;98247.41;;;19.59;98.98
65157;BME280;52745;49.794;18.258;2022-08-19T04:19:48;98256.34;;;19.59;98.73
65157;BME280;52745;49.794;18.258;2022-08-19T04:22:15;98257.00;;;19.65;98.49
65157;BME280;52745;49.794;18.258;2022-08-19T04:24:41;98260.41;;;19.71;98.10
65157;BME280;52745;49.794;18.258;2022-08-19T04:27:08;98268.38;;;19.76;97.83
65157;BME280;52745;49.794;18.258;2022-08-19T04:29:34;98275.88;;;19.79;97.78
65157;BME280;52745;49.794;18.258;2022-08-19T04:32:01;98275.25;;;19.82;97.78
65157;BME280;52745;49.794;18.258;2022-08-19T04:34:28;98277.34;;;19.85;97.45
65157;BME280;52745;49.794;18.258;2022-08-19T04:36:57;98274.03;;;19.88;97.30
65157;BME280;52745;49.794;18.258;2022-08-19T04:39:28;98281.81;;;19.90;97.20
65157;BME280;52745;49.794;18.258;2022-08-19T04:42:16;98277.06;;;19.95;97.25
65157;BME280;52745;49.794;18.258;2022-08-19T04:45:13;98284.25;;;20.00;96.74
65157;BME280;52745;49.794;18.258;2022-08-19T04:47:42;98280.59;;;20.04;96.30
65157;BME280;52745;49.794;18.258;2022-08-19T04:50:10;98266.91;;;20.10;95.90
65157;BME280;52745;49.794;18.258;2022-08-19T04:52:38;98264.38;;;20.13;96.00
65157;BME280;52745;49.794;18.258;2022-08-19T04:55:12;98272.34;;;20.18;95.99
65157;BME280;52745;49.794;18.258;2022-08-19T04:57:39;98270.63;;;20.22;95.58
65157;BME280;52745;49.794;18.258;2022-08-19T05:00:07;98269.50;;;20.32;95.11
65157;BME280;52745;49.794;18.258;2022-08-19T05:02:35;98270.00;;;20.43;94.54
65157;BME280;52745;49.794;18.258;2022-08-19T05:05:02;98266.53;;;20.51;94.28
65157;BME280;52745;49.794;18.258;2022-08-19T05:07:29;98270.72;;;20.57;94.32
65157;BME280;52745;49.794;18.258;2022-08-19T05:09:55;98264.66;;;20.69;93.35
65157;BME280;52745;49.794;18.258;2022-08-19T05:12:22;98277.44;;;20.77;93.44
65157;BME280;52745;49.794;18.258;2022-08-19T05:14:48;98270.75;;;20.83;93.41
65157;BME280;52745;49.794;18.258;2022-08-19T05:17:15;98274.25;;;20.93;92.24
65157;BME280;52745;49.794;18.258;2022-08-19T05:19:42;98273.28;;;21.06;92.02
65157;BME280;52745;49.794;18.258;2022-08-19T05:22:29;98276.47;;;21.25;91.08
65157;BME280;52745;49.794;18.258;2022-08-19T05:24:58;98270.66;;;21.36;90.94
65157;BME280;52745;49.794;18.258;2022-08-19T05:27:26;98277.56;;;21.42;90.32
65157;BME280;52745;49.794;18.258;2022-08-19T05:29:52;98275.13;;;21.40;89.85
65157;BME280;52745;49.794;18.258;2022-08-19T05:32:19;98275.94;;;21.49;89.44
65157;BME280;52745;49.794;18.258;2022-08-19T05:34:45;98275.13;;;21.58;88.29
65157;BME280;52745;49.794;18.258;2022-08-19T05:37:12;98283.25;;;21.66;87.52
65157;BME280;52745;49.794;18.258;2022-08-19T05:39:38;98281.78;;;21.78;87.09
65157;BME280;52745;49.794;18.258;2022-08-19T05:42:08;98282.22;;;21.88;86.55
65157;BME280;52745;49.794;18.258;2022-08-19T05:44:41;98284.22;;;22.00;86.24
65157;BME280;52745;49.794;18.258;2022-08-19T05:47:13;98302.59;;;22.12;85.05
65157;BME280;52745;49.794;18.258;2022-08-19T05:49:42;98299.00;;;22.20;83.21
65157;BME280;52745;49.794;18.258;2022-08-19T05:52:11;98307.00;;;22.34;82.83
65157;BME280;52745;49.794;18.258;2022-08-19T05:54:39;98306.41;;;22.49;81.86
65157;BME280;52745;49.794;18.258;2022-08-19T05:57:08;98313.06;;;22.61;78.91
65157;BME280;52745;49.794;18.258;2022-08-19T05:59:35;98308.16;;;22.75;78.59
65157;BME280;52745;49.794;18.258;2022-08-19T06:02:03;98301.66;;;22.88;77.18
65157;BME280;52745;49.794;18.258;2022-08-19T06:04:30;98308.47;;;23.03;75.43
65157;BME280;52745;49.794;18.258;2022-08-19T06:06:57;98306.91;;;23.14;74.88
65157;BME280;52745;49.794;18.258;2022-08-19T06:09:24;98302.78;;;23.29;72.04
65157;BME280;52745;49.794;18.258;2022-08-19T06:11:57;98303.06;;;23.49;71.15
65157;BME280;52745;49.794;18.258;2022-08-19T06:14:31;98311.41;;;23.65;69.29
65157;BME280;52745;49.794;18.258;2022-08-19T06:16:58;98317.81;;;23.81;68.01
65157;BME280;52745;49.794;18.258;2022-08-19T06:19:29;98318.41;;;23.99;67.14
65157;BME280;52745;49.794;18.258;2022-08-19T06:21:59;98320.69;;;24.22;65.03
65157;BME280;52745;49.794;18.258;2022-08-19T06:24:27;98322.53;;;24.42;63.88
65157;BME280;52745;49.794;18.258;2022-08-19T06:26:56;98332.53;;;24.63;62.45
65157;BME280;52745;49.794;18.258;2022-08-19T06:29:25;98333.09;;;24.81;62.13
65157;BME280;52745;49.794;18.258;2022-08-19T06:31:55;98327.34;;;24.98;60.33
65157;BME280;52745;49.794;18.258;2022-08-19T06:34:22;98334.44;;;25.15;60.36
65157;BME280;52745;49.794;18.258;2022-08-19T06:36:51;98337.63;;;25.29;58.27
65157;BME280;52745;49.794;18.258;2022-08-19T06:39:24;98334.94;;;25.45;58.38
65157;BME280;52745;49.794;18.258;2022-08-19T06:41:55;98336.13;;;25.60;57.36
65157;BME280;52745;49.794;18.258;2022-08-19T06:44:24;98341.97;;;25.74;56.97
65157;BME280;52745;49.794;18.258;2022-08-19T06:46:53;98359.69;;;25.93;57.93
65157;BME280;52745;49.794;18.258;2022-08-19T06:49:19;98356.50;;;26.07;56.20
65157;BME280;52745;49.794;18.258;2022-08-19T06:51:48;98361.53;;;26.20;55.93
65157;BME280;52745;49.794;18.258;2022-08-19T06:54:16;98362.13;;;26.30;55.81
65157;BME280;52745;49.794;18.258;2022-08-19T06:56:44;98362.66;;;26.51;55.15
65157;BME280;52745;49.794;18.258;2022-08-19T06:59:15;98369.81;;;26.72;54.32
65157;BME280;52745;49.794;18.258;2022-08-19T07:01:45;98363.88;;;26.86;53.39
65157;BME280;52745;49.794;18.258;2022-08-19T07:04:17;98362.38;;;27.08;52.96
65157;BME280;52745;49.794;18.258;2022-08-19T07:06:44;98358.09;;;27.26;53.06
65157;BME280;52745;49.794;18.258;2022-08-19T07:09:14;98363.38;;;27.35;52.08
65157;BME280;52745;49.794;18.258;2022-08-19T07:11:49;98375.38;;;27.50;52.00
65157;BME280;52745;49.794;18.258;2022-08-19T07:14:19;98371.06;;;27.49;51.88
65157;BME280;52745;49.794;18.258;2022-08-19T07:16:49;98365.44;;;27.61;52.44
65157;BME280;52745;49.794;18.258;2022-08-19T07:19:16;98370.97;;;27.64;51.35
65157;BME280;52745;49.794;18.258;2022-08-19T07:21:43;98376.97;;;27.70;51.34
65157;BME280;52745;49.794;18.258;2022-08-19T07:24:10;98376.97;;;27.70;50.68
65157;BME280;52745;49.794;18.258;2022-08-19T07:26:40;98380.28;;;27.79;51.42
65157;BME280;52745;49.794;18.258;2022-08-19T07:29:07;98376.00;;;28.01;50.73
65157;BME280;52745;49.794;18.258;2022-08-19T07:31:34;98369.97;;;28.15;50.23
65157;BME280;52745;49.794;18.258;2022-08-19T07:34:04;98367.03;;;28.27;49.88
65157;BME280;52745;49.794;18.258;2022-08-19T07:36:36;98376.06;;;28.51;50.50
65157;BME280;52745;49.794;18.258;2022-08-19T07:39:09;98365.50;;;28.80;48.72
65157;BME280;52745;49.794;18.258;2022-08-19T07:41:37;98369.69;;;29.00;48.33
65157;BME280;52745;49.794;18.258;2022-08-19T07:44:05;98371.50;;;29.16;48.01
65157;BME280;52745;49.794;18.258;2022-08-19T07:46:35;98376.63;;;29.47;46.53
65157;BME280;52745;49.794;18.258;2022-08-19T07:49:04;98372.28;;;29.80;45.87
65157;BME280;52745;49.794;18.258;2022-08-19T07:51:31;98377.53;;;30.34;43.91
65157;BME280;52745;49.794;18.258;2022-08-19T07:53:57;98381.28;;;30.66;42.60
65157;BME280;52745;49.794;18.258;2022-08-19T07:56:24;98378.91;;;30.61;44.14
65157;BME280;52745;49.794;18.258;2022-08-19T07:58:52;98377.53;;;30.37;45.92
65157;BME280;52745;49.794;18.258;2022-08-19T08:01:23;98379.03;;;30.31;46.46
65157;BME280;52745;49.794;18.258;2022-08-19T08:03:52;98368.75;;;30.24;45.52
65157;BME280;52745;49.794;18.258;2022-08-19T08:06:37;98378.03;;;30.05;46.90
65157;BME280;52745;49.794;18.258;2022-08-19T08:09:27;98378.34;;;29.97;47.64
65157;BME280;52745;49.794;18.258;2022-08-19T08:12:02;98370.84;;;29.94;47.32
65157;BME280;52745;49.794;18.258;2022-08-19T08:14:33;98367.75;;;29.99;46.35
65157;BME280;52745;49.794;18.258;2022-08-19T08:17:02;98356.84;;;30.09;45.31
65157;BME280;52745;49.794;18.258;2022-08-19T08:19:29;98365.50;;;30.11;45.77
65157;BME280;52745;49.794;18.258;2022-08-19T08:21:57;98368.69;;;30.17;45.12
65157;BME280;52745;49.794;18.258;2022-08-19T08:24:26;98374.03;;;30.44;44.65
65157;BME280;52745;49.794;18.258;2022-08-19T08:26:53;98381.06;;;31.73;42.22
65157;BME280;52745;49.794;18.258;2022-08-19T08:29:20;98372.53;;;33.74;39.12
65157;BME280;52745;49.794;18.258;2022-08-19T08:31:46;98369.22;;;34.91;37.51
65157;BME280;52745;49.794;18.258;2022-08-19T08:34:14;98365.09;;;35.72;34.29
65157;BME280;52745;49.794;18.258;2022-08-19T08:36:44;98370.28;;;35.97;34.83
65157;BME280;52745;49.794;18.258;2022-08-19T08:39:13;98363.84;;;35.11;36.49
65157;BME280;52745;49.794;18.258;2022-08-19T08:44:22;98360.25;;;34.31;38.06
65157;BME280;52745;49.794;18.258;2022-08-19T08:46:55;98367.66;;;35.55;37.01
65157;BME280;52745;49.794;18.258;2022-08-19T08:49:31;98366.78;;;36.67;33.16
65157;BME280;52745;49.794;18.258;2022-08-19T08:52:06;98355.03;;;36.99;32.35
65157;BME280;52745;49.794;18.258;2022-08-19T08:54:55;98364.44;;;37.09;32.55
65157;BME280;52745;49.794;18.258;2022-08-19T08:58:39;98360.91;;;37.25;32.75
65157;BME280;52745;49.794;18.258;2022-08-19T09:00:39;98361.84;;;37.18;31.39
65157;BME280;52745;49.794;18.258;2022-08-19T09:05:55;98366.22;;;38.41;27.80
65157;BME280;52745;49.794;18.258;2022-08-19T09:10:56;98351.81;;;39.05;27.66
65157;BME280;52745;49.794;18.258;2022-08-19T09:16:23;98355.97;;;39.81;25.59
65157;BME280;52745;49.794;18.258;2022-08-19T09:18:56;98356.97;;;39.74;26.02
65157;BME280;52745;49.794;18.258;2022-08-19T09:21:25;98350.63;;;39.48;24.51
65157;BME280;52745;49.794;18.258;2022-08-19T09:23:53;98362.25;;;39.30;24.66
65157;BME280;52745;49.794;18.258;2022-08-19T09:26:21;98358.09;;;39.09;24.87
65157;BME280;52745;49.794;18.258;2022-08-19T09:28:50;98350.03;;;39.53;25.20
65157;BME280;52745;49.794;18.258;2022-08-19T09:31:21;98358.41;;;39.79;24.42
65157;BME280;52745;49.794;18.258;2022-08-19T09:33:49;98365.13;;;39.68;24.49
65157;BME280;52745;49.794;18.258;2022-08-19T09:36:18;98362.09;;;40.40;23.39
65157;BME280;52745;49.794;18.258;2022-08-19T09:38:45;98361.47;;;40.70;23.00
65157;BME280;52745;49.794;18.258;2022-08-19T09:41:23;98367.13;;;40.67;23.58
65157;BME280;52745;49.794;18.258;2022-08-19T09:43:52;98347.47;;;40.70;23.73
65157;BME280;52745;49.794;18.258;2022-08-19T09:46:26;98353.06;;;40.92;24.09
65157;BME280;52745;49.794;18.258;2022-08-19T09:48:53;98347.97;;;40.78;23.16
65157;BME280;52745;49.794;18.258;2022-08-19T09:51:24;98343.44;;;40.24;23.33
65157;BME280;52745;49.794;18.258;2022-08-19T09:53:51;98342.00;;;40.32;24.29
65157;BME280;52745;49.794;18.258;2022-08-19T09:56:21;98343.03;;;39.87;25.73
65157;BME280;52745;49.794;18.258;2022-08-19T09:58:48;98342.78;;;39.68;25.78
65157;BME280;52745;49.794;18.258;2022-08-19T10:01:21;98334.09;;;39.11;25.95
65157;BME280;52745;49.794;18.258;2022-08-19T10:03:50;98327.25;;;39.42;26.18
65157;BME280;52745;49.794;18.258;2022-08-19T10:06:18;98326.84;;;40.42;23.69
65157;BME280;52745;49.794;18.258;2022-08-19T10:08:46;98329.78;;;41.18;23.70
65157;BME280;52745;49.794;18.258;2022-08-19T10:11:13;98322.06;;;41.09;22.84
65157;BME280;52745;49.794;18.258;2022-08-19T10:13:43;98315.59;;;41.84;22.24
65157;BME280;52745;49.794;18.258;2022-08-19T10:16:16;98317.56;;;42.14;21.43
65157;BME280;52745;49.794;18.258;2022-08-19T10:18:46;98312.78;;;42.61;21.13
65157;BME280;52745;49.794;18.258;2022-08-19T10:21:28;98307.47;;;43.00;22.46
65157;BME280;52745;49.794;18.258;2022-08-19T10:23:57;98316.06;;;42.96;21.62
65157;BME280;52745;49.794;18.258;2022-08-19T10:26:27;98312.41;;;43.24;21.52
65157;BME280;52745;49.794;18.258;2022-08-19T10:28:55;98333.38;;;42.86;20.64
65157;BME280;52745;49.794;18.258;2022-08-19T10:31:28;98320.06;;;42.22;21.66
65157;BME280;52745;49.794;18.258;2022-08-19T10:33:55;98322.59;;;42.75;21.27
65157;BME280;52745;49.794;18.258;2022-08-19T10:36:30;98310.13;;;42.30;21.03
65157;BME280;52745;49.794;18.258;2022-08-19T10:38:59;98308.88;;;42.77;20.18
65157;BME280;52745;49.794;18.258;2022-08-19T10:41:29;98316.91;;;43.30;21.60
65157;BME280;52745;49.794;18.258;2022-08-19T10:44:08;98319.50;;;42.54;20.19
65157;BME280;52745;49.794;18.258;2022-08-19T10:46:41;98319.50;;;42.45;20.72
65157;BME280;52745;49.794;18.258;2022-08-19T10:49:10;98317.84;;;41.58;22.74
65157;BME280;52745;49.794;18.258;2022-08-19T10:51:39;98314.63;;;42.36;20.79
65157;BME280;52745;49.794;18.258;2022-08-19T10:54:24;98316.56;;;41.90;21.04
65157;BME280;52745;49.794;18.258;2022-08-19T10:57:11;98317.88;;;41.98;20.88
65157;BME280;52745;49.794;18.258;2022-08-19T10:59:38;98311.25;;;41.83;21.68
65157;BME280;52745;49.794;18.258;2022-08-19T11:02:08;98305.41;;;42.27;21.81
65157;BME280;52745;49.794;18.258;2022-08-19T11:04:37;98307.19;;;42.52;21.28
65157;BME280;52745;49.794;18.258;2022-08-19T11:07:04;98309.78;;;42.09;21.68
65157;BME280;52745;49.794;18.258;2022-08-19T11:09:37;98312.50;;;41.91;21.15
65157;BME280;52745;49.794;18.258;2022-08-19T11:12:05;98311.25;;;41.83;21.34
65157;BME280;52745;49.794;18.258;2022-08-19T11:14:34;98311.91;;;41.55;21.49
65157;BME280;52745;49.794;18.258;2022-08-19T11:17:02;98306.28;;;41.15;22.83
65157;BME280;52745;49.794;18.258;2022-08-19T11:19:29;98298.59;;;40.27;24.46
65157;BME280;52745;49.794;18.258;2022-08-19T11:21:56;98294.72;;;39.35;24.19
65157;BME280;52745;49.794;18.258;2022-08-19T11:24:24;98296.69;;;40.11;24.12
65157;BME280;52745;49.794;18.258;2022-08-19T11:26:53;98300.94;;;41.08;23.04
65157;BME280;52745;49.794;18.258;2022-08-19T11:29:25;98302.28;;;41.25;22.09
65157;BME280;52745;49.794;18.258;2022-08-19T11:31:51;98308.31;;;40.70;23.06
65157;BME280;52745;49.794;18.258;2022-08-19T11:34:21;98302.91;;;39.68;23.45
65157;BME280;52745;49.794;18.258;2022-08-19T11:36:49;98295.47;;;40.25;23.56
65157;BME280;52745;49.794;18.258;2022-08-19T11:39:18;98301.25;;;40.31;24.63
65157;BME280;52745;49.794;18.258;2022-08-19T11:41:45;98280.56;;;40.63;22.69
65157;BME280;52745;49.794;18.258;2022-08-19T11:44:12;98292.91;;;40.05;23.79
65157;BME280;52745;49.794;18.258;2022-08-19T11:46:41;98283.09;;;39.11;24.88
65157;BME280;52745;49.794;18.258;2022-08-19T11:49:13;98294.88;;;39.44;25.00
65157;BME280;52745;49.794;18.258;2022-08-19T11:51:40;98282.19;;;39.14;23.92
65157;BME280;52745;49.794;18.258;2022-08-19T11:54:10;98281.31;;;39.17;25.91
65157;BME280;52745;49.794;18.258;2022-08-19T11:56:38;98270.50;;;38.77;25.42
65157;BME280;52745;49.794;18.258;2022-08-19T11:59:04;98276.63;;;38.26;25.37
65157;BME280;52745;49.794;18.258;2022-08-19T12:01:31;98271.66;;;38.01;26.49
65157;BME280;52745;49.794;18.258;2022-08-19T12:03:58;98268.38;;;37.74;27.00
65157;BME280;52745;49.794;18.258;2022-08-19T12:06:29;98277.50;;;37.74;26.18
65157;BME280;52745;49.794;18.258;2022-08-19T12:08:57;98274.91;;;37.67;28.17
65157;BME280;52745;49.794;18.258;2022-08-19T12:11:26;98272.03;;;37.87;27.41
65157;BME280;52745;49.794;18.258;2022-08-19T12:13:53;98271.97;;;37.54;26.95
65157;BME280;52745;49.794;18.258;2022-08-19T12:16:22;98276.56;;;37.64;28.20
65157;BME280;52745;49.794;18.258;2022-08-19T12:18:50;98267.66;;;37.53;28.50
65157;BME280;52745;49.794;18.258;2022-08-19T12:21:20;98270.19;;;37.64;26.70
65157;BME280;52745;49.794;18.258;2022-08-19T12:23:49;98270.38;;;37.20;28.16
65157;BME280;52745;49.794;18.258;2022-08-19T12:26:17;98257.53;;;37.43;28.51
65157;BME280;52745;49.794;18.258;2022-08-19T12:28:44;98260.66;;;37.45;28.27
65157;BME280;52745;49.794;18.258;2022-08-19T12:31:11;98253.53;;;37.44;29.40
65157;BME280;52745;49.794;18.258;2022-08-19T12:33:41;98256.81;;;37.39;27.27
65157;BME280;52745;49.794;18.258;2022-08-19T12:36:10;98254.63;;;37.66;28.15
65157;BME280;52745;49.794;18.258;2022-08-19T12:38:38;98249.19;;;37.43;27.91
65157;BME280;52745;49.794;18.258;2022-08-19T12:41:06;98246.81;;;37.41;28.18
65157;BME280;52745;49.794;18.258;2022-08-19T12:43:33;98258.03;;;36.81;27.92
65157;BME280;52745;49.794;18.258;2022-08-19T12:46:02;98250.38;;;36.45;28.47
65157;BME280;52745;49.794;18.258;2022-08-19T12:48:33;98255.72;;;36.36;28.68
65157;BME280;52745;49.794;18.258;2022-08-19T12:51:06;98259.19;;;36.64;29.41
65157;BME280;52745;49.794;18.258;2022-08-19T12:53:33;98268.41;;;36.57;28.92
65157;BME280;52745;49.794;18.258;2022-08-19T12:56:00;98248.16;;;36.60;29.59
65157;BME280;52745;49.794;18.258;2022-08-19T12:58:27;98259.66;;;36.39;28.73
65157;BME280;52745;49.794;18.258;2022-08-19T13:00:55;98256.16;;;36.35;28.79
65157;BME280;52745;49.794;18.258;2022-08-19T13:03:21;98251.88;;;36.30;28.92
65157;BME280;52745;49.794;18.258;2022-08-19T13:05:55;98251.88;;;36.50;28.68
65157;BME280;52745;49.794;18.258;2022-08-19T13:08:22;98237.81;;;36.37;28.87
65157;BME280;52745;49.794;18.258;2022-08-19T13:10:49;98239.22;;;36.49;28.75
65157;BME280;52745;49.794;18.258;2022-08-19T13:13:16;98240.38;;;36.72;28.78